Time;durP1;ratioP1;P1;durP2;ratioP2;P2;SDS_P1;SDS_P2;PMS_P1;PMS_P2;Temp;Humidity;BMP_temperature;BMP_pressure;BME280_temperature;BME280_humidity;BME280_pressure;Samples;Min_cycle;Max_cycle;Signal;HPM_P1;HPM_P2
2023/06/25 00:00:19;;;;;;;22.10;10.80;;;;;;;;;;108224;1250;22861;-81
2023/06/25 00:03:05;;;;;;;15.00;10.70;;;;;;;;;;108158;1255;22677;-81
2023/06/25 00:05:32;;;;;;;18.10;11.10;;;;;;;;;;108863;1251;23817;-81
2023/06/25 00:07:58;;;;;;;18.90;10.80;;;;;;;;;;108733;1251;22529;-81
2023/06/25 00:10:25;;;;;;;18.60;11.50;;;;;;;;;;108381;1251;24238;-82
2023/06/25 00:12:51;;;;;;;15.80;10.90;;;;;;;;;;108196;1251;23284;-82
2023/06/25 00:15:17;;;;;;;20.80;12.00;;;;;;;;;;108559;1251;22933;-81
2023/06/25 00:17:47;;;;;;;17.90;10.90;;;;;;;;;;109277;1256;22569;-81
2023/06/25 00:20:16;;;;;;;15.20;11.40;;;;;;;;;;108179;1254;25348;-80
2023/06/25 00:22:43;;;;;;;18.60;11.80;;;;;;;;;;108262;1254;25388;-81
2023/06/25 00:25:09;;;;;;;22.10;11.50;;;;;;;;;;108182;1257;25362;-81
2023/06/25 00:27:36;;;;;;;15.10;11.70;;;;;;;;;;108202;1251;24216;-81
2023/06/25 00:30:02;;;;;;;14.40;10.50;;;;;;;;;;108187;1256;22578;-80
2023/06/25 00:32:29;;;;;;;15.80;10.60;;;;;;;;;;108265;1251;22611;-81
2023/06/25 00:34:57;;;;;;;16.50;10.40;;;;;;;;;;108278;1250;22590;-81
2023/06/25 00:37:24;;;;;;;18.70;12.60;;;;;;;;;;108144;1251;23501;-81
2023/06/25 00:39:51;;;;;;;13.30;10.10;;;;;;;;;;108170;1251;24199;-81
2023/06/25 00:42:17;;;;;;;18.70;11.10;;;;;;;;;;108198;1251;26482;-81
2023/06/25 00:44:43;;;;;;;13.30;10.40;;;;;;;;;;108237;1251;23451;-81
2023/06/25 00:47:12;;;;;;;14.90;10.90;;;;;;;;;;108217;1251;22995;-81
2023/06/25 00:49:41;;;;;;;16.50;10.70;;;;;;;;;;108237;1251;23268;-81
2023/06/25 00:52:10;;;;;;;14.80;10.00;;;;;;;;;;108290;1251;23933;-81
2023/06/25 00:54:41;;;;;;;22.30;11.60;;;;;;;;;;108151;1256;22534;-81
2023/06/25 00:57:07;;;;;;;15.00;10.90;;;;;;;;;;108174;1251;22615;-81
2023/06/25 00:59:43;;;;;;;17.40;11.00;;;;;;;;;;108167;1256;25536;-81
2023/06/25 01:02:09;;;;;;;18.60;11.30;;;;;;;;;;108157;1255;24399;-81
2023/06/25 01:04:38;;;;;;;15.80;9.40;;;;;;;;;;108151;1251;22521;-81
2023/06/25 01:07:04;;;;;;;17.40;10.60;;;;;;;;;;108111;1252;25455;-81
2023/06/25 01:09:31;;;;;;;16.30;10.00;;;;;;;;;;107990;1251;22555;-81
2023/06/25 01:12:01;;;;;;;15.30;9.70;;;;;;;;;;108224;1251;22567;-81
2023/06/25 01:14:28;;;;;;;15.50;10.50;;;;;;;;;;108103;1251;25214;-81
2023/06/25 01:16:55;;;;;;;19.40;10.60;;;;;;;;;;108182;1255;25400;-81
2023/06/25 01:19:29;;;;;;;18.30;10.20;;;;;;;;;;108126;1251;22537;-81
2023/06/25 01:21:57;;;;;;;16.50;9.40;;;;;;;;;;108180;1251;24228;-81
2023/06/25 01:24:23;;;;;;;16.70;9.80;;;;;;;;;;108160;1251;24463;-81
2023/06/25 01:26:54;;;;;;;15.80;11.30;;;;;;;;;;108898;1251;25452;-81
2023/06/25 01:29:21;;;;;;;18.00;10.00;;;;;;;;;;108211;1251;25468;-83
2023/06/25 01:31:51;;;;;;;15.10;10.20;;;;;;;;;;108178;1251;26489;-81
2023/06/25 01:34:20;;;;;;;17.40;9.30;;;;;;;;;;108177;1251;24210;-81
2023/06/25 01:36:49;;;;;;;15.50;9.80;;;;;;;;;;108099;1253;22647;-80
2023/06/25 01:39:16;;;;;;;12.90;9.40;;;;;;;;;;108135;1251;22642;-81
2023/06/25 01:41:43;;;;;;;14.20;9.90;;;;;;;;;;109541;1251;22582;-81
2023/06/25 01:44:10;;;;;;;18.80;9.50;;;;;;;;;;108103;1255;22562;-81
2023/06/25 01:46:37;;;;;;;12.40;9.00;;;;;;;;;;108156;1251;22591;-81
2023/06/25 01:49:03;;;;;;;17.80;9.70;;;;;;;;;;108132;1251;22541;-81
2023/06/25 01:51:31;;;;;;;15.20;9.70;;;;;;;;;;108182;1254;25500;-81
2023/06/25 01:53:58;;;;;;;20.00;10.30;;;;;;;;;;108185;1251;22531;-81
2023/06/25 01:56:24;;;;;;;14.60;9.60;;;;;;;;;;108176;1251;23291;-80
2023/06/25 01:58:54;;;;;;;12.80;9.70;;;;;;;;;;108164;1251;22551;-81
2023/06/25 02:01:20;;;;;;;15.10;9.60;;;;;;;;;;108154;1251;22481;-81
2023/06/25 02:03:46;;;;;;;16.20;9.00;;;;;;;;;;108287;1251;24192;-82
2023/06/25 02:06:14;;;;;;;15.50;9.60;;;;;;;;;;108295;1251;23305;-82
2023/06/25 02:08:40;;;;;;;13.60;9.80;;;;;;;;;;108161;1251;22845;-81
2023/06/25 02:11:07;;;;;;;15.70;9.50;;;;;;;;;;108201;1251;22639;-81
2023/06/25 02:13:34;;;;;;;15.70;10.10;;;;;;;;;;108162;1251;25529;-81
2023/06/25 02:16:00;;;;;;;23.60;10.40;;;;;;;;;;108184;1250;22526;-81
2023/06/25 02:18:27;;;;;;;15.00;10.40;;;;;;;;;;108217;1251;23309;-80
2023/06/25 02:20:54;;;;;;;18.50;11.70;;;;;;;;;;108232;1254;25278;-81
2023/06/25 02:23:20;;;;;;;16.90;9.40;;;;;;;;;;108181;1251;24245;-80
2023/06/25 02:25:46;;;;;;;17.20;10.50;;;;;;;;;;109261;1251;23829;-81
2023/06/25 02:28:13;;;;;;;16.20;10.20;;;;;;;;;;109638;1251;22905;-81
2023/06/25 02:30:39;;;;;;;18.20;9.40;;;;;;;;;;110114;1251;22462;-80
2023/06/25 02:33:06;;;;;;;18.60;10.30;;;;;;;;;;109822;1253;22585;-80
2023/06/25 02:35:32;;;;;;;15.30;10.90;;;;;;;;;;108127;1251;22552;-80
2023/06/25 02:37:59;;;;;;;17.60;10.20;;;;;;;;;;108117;1256;23124;-81
2023/06/25 02:40:27;;;;;;;18.10;12.00;;;;;;;;;;108576;1251;22937;-80
2023/06/25 02:42:53;;;;;;;16.90;10.60;;;;;;;;;;109037;1251;22682;-80
2023/06/25 02:45:20;;;;;;;19.20;10.70;;;;;;;;;;108122;1251;22534;-81
2023/06/25 02:47:46;;;;;;;17.70;9.40;;;;;;;;;;108146;1251;22571;-80
2023/06/25 02:50:13;;;;;;;17.60;10.70;;;;;;;;;;108166;1251;22573;-80
2023/06/25 02:52:39;;;;;;;18.70;11.40;;;;;;;;;;108168;1251;25470;-80
2023/06/25 02:55:05;;;;;;;19.00;10.10;;;;;;;;;;108174;1251;22598;-80
2023/06/25 02:57:32;;;;;;;14.20;9.40;;;;;;;;;;108146;1251;25529;-80
2023/06/25 02:59:58;;;;;;;13.90;9.20;;;;;;;;;;108216;1251;25474;-80
2023/06/25 03:02:25;;;;;;;15.80;9.60;;;;;;;;;;108122;1251;22581;-81
2023/06/25 03:04:51;;;;;;;15.40;10.20;;;;;;;;;;108194;1255;25423;-80
2023/06/25 03:07:17;;;;;;;13.20;9.30;;;;;;;;;;107580;1251;22521;-80
2023/06/25 03:09:44;;;;;;;13.70;9.10;;;;;;;;;;108177;1254;23013;-80
2023/06/25 03:12:10;;;;;;;12.40;8.80;;;;;;;;;;108144;1251;23006;-80
2023/06/25 03:14:37;;;;;;;14.30;10.30;;;;;;;;;;108171;1251;22666;-80
2023/06/25 03:17:03;;;;;;;15.60;10.50;;;;;;;;;;108147;1255;25385;-80
2023/06/25 03:19:30;;;;;;;15.80;9.40;;;;;;;;;;108170;1251;22542;-80
2023/06/25 03:21:56;;;;;;;13.20;8.60;;;;;;;;;;108128;1251;23261;-80
2023/06/25 03:24:22;;;;;;;14.10;9.00;;;;;;;;;;108129;1251;22571;-80
2023/06/25 03:26:49;;;;;;;12.60;8.40;;;;;;;;;;108139;1251;25469;-80
2023/06/25 03:29:15;;;;;;;12.60;8.40;;;;;;;;;;108329;1251;22537;-80
2023/06/25 03:31:42;;;;;;;14.10;8.80;;;;;;;;;;108177;1251;23042;-80
2023/06/25 03:34:08;;;;;;;15.50;10.50;;;;;;;;;;108174;1251;23444;-80
2023/06/25 03:36:34;;;;;;;16.50;9.30;;;;;;;;;;108175;1254;25299;-80
2023/06/25 03:39:01;;;;;;;14.50;8.10;;;;;;;;;;108157;1251;24192;-80
2023/06/25 03:41:28;;;;;;;17.80;9.00;;;;;;;;;;108122;1251;25359;-80
2023/06/25 03:43:54;;;;;;;12.80;8.60;;;;;;;;;;108194;1251;22571;-80
2023/06/25 03:46:21;;;;;;;12.10;7.50;;;;;;;;;;108146;1251;22552;-80
2023/06/25 03:48:47;;;;;;;11.30;7.40;;;;;;;;;;108246;1251;23373;-80
2023/06/25 03:51:14;;;;;;;10.00;7.00;;;;;;;;;;108200;1251;22532;-80
2023/06/25 03:53:40;;;;;;;10.10;7.50;;;;;;;;;;108229;1253;22993;-80
2023/06/25 03:56:06;;;;;;;11.80;8.40;;;;;;;;;;108345;1250;22626;-81
2023/06/25 03:58:33;;;;;;;13.10;7.70;;;;;;;;;;108083;1254;22572;-81
2023/06/25 04:01:00;;;;;;;13.00;8.60;;;;;;;;;;108158;1251;22595;-81
2023/06/25 04:03:27;;;;;;;11.90;7.60;;;;;;;;;;108183;1251;22640;-80
2023/06/25 04:05:53;;;;;;;10.90;6.70;;;;;;;;;;108214;1251;22587;-81
2023/06/25 04:08:20;;;;;;;11.20;7.40;;;;;;;;;;108205;1250;23281;-81
2023/06/25 04:10:46;;;;;;;10.70;7.30;;;;;;;;;;108183;1251;22528;-81
2023/06/25 04:13:12;;;;;;;9.90;7.10;;;;;;;;;;108164;1251;22576;-81
2023/06/25 04:15:39;;;;;;;12.30;6.80;;;;;;;;;;108227;1250;23481;-81
2023/06/25 04:18:05;;;;;;;8.40;6.70;;;;;;;;;;108183;1251;22547;-81
2023/06/25 04:20:32;;;;;;;13.00;9.10;;;;;;;;;;108183;1251;22588;-81
2023/06/25 04:22:59;;;;;;;11.20;7.40;;;;;;;;;;108144;1251;22548;-81
2023/06/25 04:25:25;;;;;;;9.10;6.00;;;;;;;;;;108113;1251;22615;-81
2023/06/25 04:27:53;;;;;;;11.40;7.70;;;;;;;;;;108105;1251;22559;-81
2023/06/25 04:30:19;;;;;;;11.70;7.10;;;;;;;;;;108122;1251;25517;-81
2023/06/25 04:32:49;;;;;;;10.00;6.20;;;;;;;;;;108172;1251;24253;-81
2023/06/25 04:35:16;;;;;;;13.00;6.70;;;;;;;;;;108131;1251;25045;-81
2023/06/25 04:37:42;;;;;;;9.10;6.60;;;;;;;;;;108203;1251;23749;-81
2023/06/25 04:40:10;;;;;;;10.70;6.50;;;;;;;;;;108154;1250;22654;-81
2023/06/25 04:42:36;;;;;;;7.70;6.30;;;;;;;;;;108095;1251;22599;-81
2023/06/25 04:45:03;;;;;;;9.40;6.10;;;;;;;;;;108050;1251;22648;-80
2023/06/25 04:47:29;;;;;;;7.50;5.50;;;;;;;;;;108119;1251;22550;-81
2023/06/25 04:49:56;;;;;;;8.70;5.70;;;;;;;;;;108110;1250;24373;-81
2023/06/25 04:52:23;;;;;;;10.40;5.70;;;;;;;;;;108100;1250;22640;-81
2023/06/25 04:54:50;;;;;;;7.90;6.10;;;;;;;;;;108153;1251;23132;-81
2023/06/25 04:57:16;;;;;;;9.10;6.30;;;;;;;;;;108089;1251;22622;-81
2023/06/25 04:59:43;;;;;;;8.10;6.90;;;;;;;;;;108109;1251;23037;-81
2023/06/25 05:02:09;;;;;;;9.20;6.40;;;;;;;;;;108211;1250;22539;-81
2023/06/25 05:04:35;;;;;;;9.00;6.80;;;;;;;;;;108146;1251;25539;-81
2023/06/25 05:07:02;;;;;;;7.60;6.00;;;;;;;;;;108226;1250;25516;-81
2023/06/25 05:09:28;;;;;;;9.90;6.50;;;;;;;;;;108149;1250;22699;-81
2023/06/25 05:11:55;;;;;;;16.20;9.80;;;;;;;;;;108163;1251;22676;-82
2023/06/25 05:14:21;;;;;;;13.20;8.60;;;;;;;;;;108140;1254;23240;-82
2023/06/25 05:16:47;;;;;;;7.10;6.10;;;;;;;;;;108146;1250;22624;-81
2023/06/25 05:19:14;;;;;;;8.50;6.10;;;;;;;;;;108194;1250;22543;-81
2023/06/25 05:21:40;;;;;;;7.90;6.30;;;;;;;;;;108078;1251;22558;-81
2023/06/25 05:24:07;;;;;;;6.50;5.40;;;;;;;;;;108141;1251;22533;-81
2023/06/25 05:26:33;;;;;;;10.60;6.30;;;;;;;;;;108023;1251;22547;-81
2023/06/25 05:29:01;;;;;;;8.70;5.70;;;;;;;;;;108093;1251;22611;-81
2023/06/25 05:31:28;;;;;;;7.70;6.00;;;;;;;;;;108122;1251;22753;-82
2023/06/25 05:33:54;;;;;;;8.80;5.60;;;;;;;;;;108056;1254;23155;-81
2023/06/25 05:36:21;;;;;;;11.10;7.20;;;;;;;;;;108091;1256;22664;-81
2023/06/25 05:38:47;;;;;;;7.70;5.70;;;;;;;;;;108105;1250;24368;-81
2023/06/25 05:41:14;;;;;;;6.30;5.40;;;;;;;;;;108084;1251;24370;-81
2023/06/25 05:43:40;;;;;;;6.80;5.30;;;;;;;;;;108075;1251;25354;-81
2023/06/25 05:46:11;;;;;;;8.10;6.10;;;;;;;;;;108201;1251;23977;-81
2023/06/25 05:48:38;;;;;;;8.50;6.20;;;;;;;;;;108111;1250;22521;-82
2023/06/25 05:51:05;;;;;;;8.30;6.40;;;;;;;;;;108155;1250;22643;-81
2023/06/25 05:53:41;;;;;;;6.30;5.50;;;;;;;;;;108101;1250;22530;-81
2023/06/25 05:56:08;;;;;;;10.20;7.60;;;;;;;;;;108074;1251;22574;-81
2023/06/25 05:58:35;;;;;;;7.30;5.60;;;;;;;;;;108174;1250;26492;-81
2023/06/25 06:01:02;;;;;;;7.40;5.60;;;;;;;;;;108129;1251;24284;-81
2023/06/25 06:03:28;;;;;;;7.60;6.00;;;;;;;;;;108148;1250;26470;-81
2023/06/25 06:05:55;;;;;;;6.80;5.90;;;;;;;;;;108177;1251;22521;-81
2023/06/25 06:08:22;;;;;;;9.00;5.70;;;;;;;;;;108175;1250;23362;-82
2023/06/25 06:10:48;;;;;;;7.20;6.10;;;;;;;;;;108131;1250;22684;-81
2023/06/25 06:13:15;;;;;;;7.10;5.00;;;;;;;;;;108574;1250;22530;-81
2023/06/25 06:15:41;;;;;;;7.40;5.70;;;;;;;;;;108144;1250;25325;-82
2023/06/25 06:18:08;;;;;;;9.90;6.90;;;;;;;;;;108182;1250;22528;-81
2023/06/25 06:20:34;;;;;;;7.20;5.70;;;;;;;;;;108195;1254;25357;-82
2023/06/25 06:23:03;;;;;;;9.40;5.80;;;;;;;;;;108141;1251;25326;-80
2023/06/25 06:25:29;;;;;;;8.30;5.90;;;;;;;;;;108159;1251;22531;-82
2023/06/25 06:27:56;;;;;;;9.20;6.50;;;;;;;;;;108098;1251;22994;-80
2023/06/25 06:30:23;;;;;;;5.80;5.00;;;;;;;;;;108130;1250;23495;-81
2023/06/25 06:32:49;;;;;;;10.60;7.50;;;;;;;;;;108176;1250;22768;-81
2023/06/25 06:35:16;;;;;;;11.00;7.50;;;;;;;;;;108139;1251;22527;-81
2023/06/25 06:37:42;;;;;;;15.10;8.50;;;;;;;;;;108162;1251;22625;-81
2023/06/25 06:40:09;;;;;;;10.20;6.10;;;;;;;;;;108133;1250;22547;-81
2023/06/25 06:42:35;;;;;;;8.40;6.70;;;;;;;;;;108127;1250;24213;-81
2023/06/25 06:45:02;;;;;;;12.10;8.30;;;;;;;;;;108137;1251;22626;-81
2023/06/25 06:47:28;;;;;;;9.60;7.00;;;;;;;;;;108115;1251;23051;-81
2023/06/25 06:49:55;;;;;;;9.80;6.60;;;;;;;;;;108163;1251;22527;-81
2023/06/25 06:52:23;;;;;;;9.20;6.70;;;;;;;;;;108128;1253;25469;-81
2023/06/25 06:54:49;;;;;;;9.40;6.50;;;;;;;;;;108200;1250;22737;-81
2023/06/25 06:57:15;;;;;;;7.30;6.60;;;;;;;;;;108098;1251;23128;-81
2023/06/25 06:59:43;;;;;;;12.30;7.10;;;;;;;;;;108167;1251;25011;-81
2023/06/25 07:02:11;;;;;;;9.00;6.50;;;;;;;;;;108196;1254;22516;-80
2023/06/25 07:04:38;;;;;;;12.60;7.40;;;;;;;;;;108233;1250;22575;-81
2023/06/25 07:07:04;;;;;;;11.80;7.40;;;;;;;;;;108091;1250;150737;-81
2023/06/25 07:09:31;;;;;;;11.30;7.10;;;;;;;;;;108699;1250;25355;-81
2023/06/25 07:11:57;;;;;;;10.90;7.40;;;;;;;;;;108131;1256;25389;-81
2023/06/25 07:14:24;;;;;;;9.20;7.60;;;;;;;;;;108176;1250;22656;-81
2023/06/25 07:16:50;;;;;;;11.90;7.00;;;;;;;;;;108146;1251;27482;-81
2023/06/25 07:19:17;;;;;;;9.40;7.20;;;;;;;;;;108177;1251;22580;-81
2023/06/25 07:21:43;;;;;;;12.90;6.90;;;;;;;;;;108117;1250;22577;-81
2023/06/25 07:24:10;;;;;;;9.50;7.20;;;;;;;;;;108157;1251;22531;-82
2023/06/25 07:26:36;;;;;;;14.40;8.20;;;;;;;;;;108162;1251;22652;-81
2023/06/25 07:29:02;;;;;;;8.30;6.80;;;;;;;;;;108182;1251;22532;-82
2023/06/25 07:31:29;;;;;;;13.20;7.80;;;;;;;;;;108159;1252;22544;-81
2023/06/25 07:33:55;;;;;;;9.70;7.10;;;;;;;;;;108184;1251;22531;-83
2023/06/25 07:36:22;;;;;;;10.50;7.10;;;;;;;;;;108163;1251;25497;-81
2023/06/25 07:38:48;;;;;;;10.70;7.00;;;;;;;;;;108218;1251;22530;-82
2023/06/25 07:41:15;;;;;;;9.80;7.30;;;;;;;;;;108239;1251;22614;-81
2023/06/25 07:43:41;;;;;;;10.00;7.00;;;;;;;;;;108212;1251;24253;-82
2023/06/25 07:46:08;;;;;;;10.30;7.10;;;;;;;;;;108099;1251;25466;-82
2023/06/25 07:48:34;;;;;;;10.50;6.70;;;;;;;;;;108192;1250;22539;-81
2023/06/25 07:51:01;;;;;;;9.60;6.50;;;;;;;;;;108213;1254;22541;-82
2023/06/25 07:53:27;;;;;;;10.70;6.50;;;;;;;;;;108233;1250;22706;-82
2023/06/25 07:55:53;;;;;;;9.00;6.00;;;;;;;;;;108191;1250;22522;-82
2023/06/25 07:58:20;;;;;;;7.60;5.80;;;;;;;;;;108248;1250;22869;-81
2023/06/25 08:00:46;;;;;;;7.30;5.80;;;;;;;;;;108132;1250;24252;-82
2023/06/25 08:03:12;;;;;;;8.90;6.10;;;;;;;;;;108148;1250;22541;-82
2023/06/25 08:05:39;;;;;;;9.10;6.10;;;;;;;;;;108220;1251;22554;-82
2023/06/25 08:08:05;;;;;;;8.80;5.70;;;;;;;;;;108168;1250;22560;-82
2023/06/25 08:10:32;;;;;;;7.30;5.50;;;;;;;;;;108184;1250;22543;-82
2023/06/25 08:12:58;;;;;;;7.70;5.70;;;;;;;;;;108139;1255;22521;-82
2023/06/25 08:15:24;;;;;;;8.70;6.50;;;;;;;;;;108104;1251;25463;-82
2023/06/25 08:17:51;;;;;;;8.40;6.30;;;;;;;;;;108180;1251;25217;-82
2023/06/25 08:20:17;;;;;;;7.90;5.60;;;;;;;;;;108129;1251;23106;-82
2023/06/25 08:22:43;;;;;;;8.30;5.30;;;;;;;;;;108163;1251;22554;-82
2023/06/25 08:25:26;;;;;;;9.00;5.70;;;;;;;;;;108079;1251;22542;-82
2023/06/25 08:27:53;;;;;;;7.20;6.10;;;;;;;;;;108176;1251;25414;-82
2023/06/25 08:30:19;;;;;;;8.00;5.70;;;;;;;;;;108218;1251;24232;-83
2023/06/25 08:32:45;;;;;;;8.60;5.50;;;;;;;;;;108125;1250;22655;-82
2023/06/25 08:35:12;;;;;;;9.90;6.40;;;;;;;;;;108178;1251;22572;-83
2023/06/25 08:37:38;;;;;;;9.50;6.00;;;;;;;;;;108117;1251;22586;-82
2023/06/25 08:40:05;;;;;;;9.50;6.10;;;;;;;;;;108159;1251;24251;-82
2023/06/25 08:42:31;;;;;;;11.50;6.70;;;;;;;;;;108178;1254;22537;-81
2023/06/25 08:44:58;;;;;;;6.20;5.50;;;;;;;;;;108197;1251;22564;-82
2023/06/25 08:47:25;;;;;;;9.50;6.00;;;;;;;;;;108166;1253;22555;-81
2023/06/25 08:49:51;;;;;;;7.40;5.90;;;;;;;;;;108275;1251;22536;-83
2023/06/25 08:52:18;;;;;;;8.70;6.20;;;;;;;;;;108151;1251;22580;-82
2023/06/25 08:54:44;;;;;;;10.20;6.00;;;;;;;;;;108192;1250;22621;-82
2023/06/25 08:57:11;;;;;;;7.00;5.90;;;;;;;;;;108197;1250;22563;-82
2023/06/25 08:59:37;;;;;;;7.30;5.60;;;;;;;;;;108213;1250;22521;-82
2023/06/25 09:02:03;;;;;;;8.70;5.60;;;;;;;;;;108238;1250;23605;-82
2023/06/25 09:04:30;;;;;;;8.10;6.30;;;;;;;;;;108196;1250;22579;-83
2023/06/25 09:07:04;;;;;;;8.20;6.20;;;;;;;;;;108201;1250;25438;-82
2023/06/25 09:09:30;;;;;;;9.20;6.60;;;;;;;;;;108198;1250;23040;-83
2023/06/25 09:11:56;;;;;;;9.10;5.70;;;;;;;;;;108240;1250;22706;-82
2023/06/25 09:14:23;;;;;;;8.30;5.70;;;;;;;;;;108275;1251;22704;-83
2023/06/25 09:16:49;;;;;;;8.30;5.80;;;;;;;;;;108331;1250;26456;-82
2023/06/25 09:19:17;;;;;;;9.70;6.20;;;;;;;;;;108264;1250;25495;-82
2023/06/25 09:21:43;;;;;;;8.40;5.40;;;;;;;;;;108237;1250;24348;-83
2023/06/25 09:24:14;;;;;;;9.90;5.60;;;;;;;;;;108197;1251;22829;-83
2023/06/25 09:26:47;;;;;;;7.00;5.10;;;;;;;;;;108641;1251;22640;-83
2023/06/25 09:29:13;;;;;;;11.30;5.40;;;;;;;;;;108230;1251;23355;-83
2023/06/25 09:31:40;;;;;;;7.90;4.90;;;;;;;;;;108196;1251;25331;-83
2023/06/25 09:34:06;;;;;;;7.40;5.20;;;;;;;;;;108335;1251;25341;-83
2023/06/25 09:36:33;;;;;;;6.40;5.00;;;;;;;;;;108195;1252;22609;-84
2023/06/25 09:38:59;;;;;;;7.40;5.30;;;;;;;;;;108343;1251;27217;-83
2023/06/25 09:41:26;;;;;;;8.30;5.50;;;;;;;;;;108280;1250;24374;-83
2023/06/25 09:43:53;;;;;;;8.20;5.50;;;;;;;;;;108227;1251;23315;-83
2023/06/25 09:46:19;;;;;;;7.20;4.80;;;;;;;;;;108251;1251;22633;-83
2023/06/25 09:48:46;;;;;;;6.70;5.20;;;;;;;;;;108338;1250;22602;-83
2023/06/25 09:51:12;;;;;;;5.80;4.60;;;;;;;;;;108156;1250;22533;-82
2023/06/25 09:53:39;;;;;;;10.10;4.80;;;;;;;;;;108199;1250;22530;-83
2023/06/25 09:56:06;;;;;;;6.00;5.10;;;;;;;;;;108293;1250;55768;-84
2023/06/25 09:58:32;;;;;;;7.70;5.10;;;;;;;;;;107292;1251;62859;-84
2023/06/25 10:00:58;;;;;;;7.70;5.30;;;;;;;;;;107200;1251;61257;-83
2023/06/25 10:03:25;;;;;;;5.70;4.30;;;;;;;;;;107183;1250;59292;-83
2023/06/25 10:05:51;;;;;;;6.50;4.90;;;;;;;;;;107204;1251;59575;-85
2023/06/25 10:08:19;;;;;;;6.90;5.60;;;;;;;;;;107146;1251;60142;-84
2023/06/25 10:10:45;;;;;;;;;;;;;;;;;;107236;1252;62844;-83
2023/06/25 10:13:12;;;;;;;7.00;5.00;;;;;;;;;;107164;1250;59574;-83
2023/06/25 10:15:39;;;;;;;7.00;4.70;;;;;;;;;;107153;1251;61436;-83
2023/06/25 10:18:05;;;;;;;7.60;5.60;;;;;;;;;;107111;1251;61305;-84
2023/06/25 10:20:35;;;;;;;5.90;4.50;;;;;;;;;;107151;1251;59208;-84
2023/06/25 10:23:11;;;;;;;5.90;4.30;;;;;;;;;;107127;1251;60689;-83
2023/06/25 10:25:39;;;;;;;5.30;4.80;;;;;;;;;;107151;1251;59651;-84
2023/06/25 10:28:09;;;;;;;7.60;5.10;;;;;;;;;;107179;1253;61360;-84
2023/06/25 10:30:39;;;;;;;6.40;4.50;;;;;;;;;;107167;1253;61109;-83
2023/06/25 10:33:06;;;;;;;7.30;4.70;;;;;;;;;;107151;1251;61517;-84
2023/06/25 10:35:36;;;;;;;7.00;4.70;;;;;;;;;;107191;1251;61116;-83
2023/06/25 10:38:03;;;;;;;4.80;3.80;;;;;;;;;;107172;1251;61253;-84
2023/06/25 10:40:33;;;;;;;4.80;4.30;;;;;;;;;;107126;1253;61348;-84
2023/06/25 10:43:00;;;;;;;5.90;4.20;;;;;;;;;;107132;1251;62602;-84
2023/06/25 10:45:26;;;;;;;8.20;4.10;;;;;;;;;;107161;1251;60718;-83
2023/06/25 10:48:00;;;;;;;5.50;4.60;;;;;;;;;;107124;1251;61122;-84
2023/06/25 10:50:31;;;;;;;6.20;4.50;;;;;;;;;;107114;1255;61023;-84
2023/06/25 10:52:57;;;;;;;6.30;4.80;;;;;;;;;;107087;1250;61158;-84
2023/06/25 10:55:24;;;;;;;5.50;4.30;;;;;;;;;;107073;1251;61227;-83
2023/06/25 10:57:54;;;;;;;6.50;5.30;;;;;;;;;;107157;1251;61297;-84
2023/06/25 11:00:25;;;;;;;6.80;4.30;;;;;;;;;;107129;1251;62630;-84
2023/06/25 11:02:52;;;;;;;6.20;4.70;;;;;;;;;;107152;1251;61281;-84
2023/06/25 11:05:30;;;;;;;6.50;4.70;;;;;;;;;;107059;1251;61218;-84
2023/06/25 11:07:57;;;;;;;7.50;5.00;;;;;;;;;;107085;1254;61292;-84
2023/06/25 11:10:23;;;;;;;5.30;4.20;;;;;;;;;;107099;1251;61302;-83
2023/06/25 11:12:50;;;;;;;5.60;4.60;;;;;;;;;;107101;1251;62115;-84
2023/06/25 11:15:17;;;;;;;7.30;4.00;;;;;;;;;;107158;1251;59225;-83
2023/06/25 11:17:49;;;;;;;4.60;4.20;;;;;;;;;;107107;1251;61220;-84
2023/06/25 11:20:15;;;;;;;6.40;4.30;;;;;;;;;;107119;1254;63315;-84
2023/06/25 11:22:42;;;;;;;5.60;4.40;;;;;;;;;;107121;1250;61329;-84
2023/06/25 11:25:09;;;;;;;7.60;5.20;;;;;;;;;;107259;1251;61782;-83
2023/06/25 11:27:37;;;;;;;4.90;4.50;;;;;;;;;;107173;1251;61133;-84
2023/06/25 11:30:03;;;;;;;8.10;4.30;;;;;;;;;;107085;1251;61245;-84
2023/06/25 11:32:30;;;;;;;5.50;3.80;;;;;;;;;;107051;1251;61277;-84
2023/06/25 11:34:57;;;;;;;5.40;4.50;;;;;;;;;;106948;1251;59639;-83
2023/06/25 11:37:23;;;;;;;8.30;4.50;;;;;;;;;;107049;1255;61889;-84
2023/06/25 11:39:50;;;;;;;7.10;4.50;;;;;;;;;;106979;1253;61131;-84
2023/06/25 11:42:18;;;;;;;7.30;4.50;;;;;;;;;;107085;1251;61389;-84
2023/06/25 11:44:44;;;;;;;;;;;;;;;;;;107045;1255;61301;-83
2023/06/25 11:47:11;;;;;;;7.30;4.60;;;;;;;;;;107059;1251;61242;-83
2023/06/25 11:49:37;;;;;;;6.00;4.90;;;;;;;;;;107082;1254;61841;-84
2023/06/25 11:52:04;;;;;;;7.40;4.80;;;;;;;;;;107149;1253;61224;-83
2023/06/25 11:54:30;;;;;;;6.00;4.70;;;;;;;;;;107147;1254;61357;-84
2023/06/25 11:56:56;;;;;;;9.20;5.10;;;;;;;;;;107147;1251;63434;-83
2023/06/25 11:59:23;;;;;;;4.70;4.20;;;;;;;;;;107144;1251;61321;-83
2023/06/25 12:01:49;;;;;;;7.50;4.30;;;;;;;;;;107148;1254;61930;-83
2023/06/25 12:04:17;;;;;;;10.40;4.40;;;;;;;;;;107123;1251;61231;-84
2023/06/25 12:06:44;;;;;;;8.70;5.20;;;;;;;;;;107302;1254;61215;-84
2023/06/25 12:09:10;;;;;;;6.70;4.80;;;;;;;;;;107127;1254;61299;-84
2023/06/25 12:11:37;;;;;;;6.30;4.70;;;;;;;;;;107129;1253;61381;-84
2023/06/25 12:14:04;;;;;;;6.60;5.30;;;;;;;;;;107175;1251;62230;-83
2023/06/25 12:16:30;;;;;;;7.00;4.80;;;;;;;;;;107187;1251;61165;-84
2023/06/25 12:18:57;;;;;;;5.30;4.80;;;;;;;;;;107223;1251;61666;-84
2023/06/25 12:21:23;;;;;;;7.10;5.30;;;;;;;;;;107222;1253;61282;-83
2023/06/25 12:23:50;;;;;;;8.30;5.20;;;;;;;;;;107164;1254;61312;-83
2023/06/25 12:26:16;;;;;;;8.80;4.70;;;;;;;;;;107109;1251;62390;-83
2023/06/25 12:28:42;;;;;;;7.10;5.50;;;;;;;;;;107100;1253;61314;-83
2023/06/25 12:31:09;;;;;;;8.90;5.00;;;;;;;;;;107189;1255;61164;-83
2023/06/25 12:33:35;;;;;;;7.70;4.90;;;;;;;;;;108156;1253;25361;-83
2023/06/25 12:36:02;;;;;;;8.70;5.20;;;;;;;;;;108159;1251;23170;-84
2023/06/25 12:38:28;;;;;;;7.00;5.10;;;;;;;;;;108122;1251;24228;-83
2023/06/25 12:40:56;;;;;;;6.40;5.80;;;;;;;;;;108140;1251;22531;-83
2023/06/25 12:43:23;;;;;;;6.80;5.10;;;;;;;;;;108137;1253;22705;-83
2023/06/25 12:45:49;;;;;;;6.00;4.40;;;;;;;;;;108145;1252;22633;-83
2023/06/25 12:48:16;;;;;;;8.00;5.20;;;;;;;;;;108127;1252;22683;-84
2023/06/25 12:50:42;;;;;;;7.30;5.10;;;;;;;;;;108253;1251;22609;-83
2023/06/25 12:53:08;;;;;;;7.40;4.90;;;;;;;;;;108173;1252;22559;-83
2023/06/25 12:55:35;;;;;;;10.60;5.20;;;;;;;;;;108208;1251;22542;-83
2023/06/25 12:58:02;;;;;;;5.90;5.00;;;;;;;;;;108192;1251;22612;-83
2023/06/25 13:00:28;;;;;;;5.90;4.80;;;;;;;;;;108189;1251;24360;-83
2023/06/25 13:02:55;;;;;;;7.70;5.70;;;;;;;;;;108251;1250;22640;-83
2023/06/25 13:05:21;;;;;;;6.40;5.10;;;;;;;;;;108222;1253;22572;-83
2023/06/25 13:07:47;;;;;;;14.50;5.30;;;;;;;;;;108155;1253;23117;-83
2023/06/25 13:10:14;;;;;;;7.00;5.70;;;;;;;;;;108187;1250;26598;-83
2023/06/25 13:12:41;;;;;;;7.80;6.00;;;;;;;;;;108209;1251;24365;-83
2023/06/25 13:15:07;;;;;;;5.40;4.90;;;;;;;;;;108211;1251;25314;-83
2023/06/25 13:17:34;;;;;;;10.70;6.30;;;;;;;;;;108157;1252;22554;-83
2023/06/25 13:20:00;;;;;;;14.10;6.10;;;;;;;;;;108186;1251;22532;-83
2023/06/25 13:22:27;;;;;;;10.20;6.10;;;;;;;;;;108219;1251;22520;-83
2023/06/25 13:24:53;;;;;;;8.10;6.00;;;;;;;;;;108207;1254;22575;-83
2023/06/25 13:27:19;;;;;;;6.40;5.60;;;;;;;;;;108175;1253;22665;-83
2023/06/25 13:29:46;;;;;;;7.80;4.70;;;;;;;;;;108160;1253;22580;-83
2023/06/25 13:32:12;;;;;;;8.00;5.30;;;;;;;;;;108120;1254;23260;-83
2023/06/25 13:34:39;;;;;;;6.60;5.60;;;;;;;;;;108134;1251;22582;-83
2023/06/25 13:37:05;;;;;;;6.10;5.30;;;;;;;;;;108068;1251;22640;-83
2023/06/25 13:39:32;;;;;;;6.70;5.50;;;;;;;;;;108141;1251;22531;-83
2023/06/25 13:41:58;;;;;;;9.30;5.70;;;;;;;;;;108127;1252;22552;-83
2023/06/25 13:44:24;;;;;;;6.40;4.90;;;;;;;;;;108089;1253;22661;-83
2023/06/25 13:46:51;;;;;;;6.50;4.70;;;;;;;;;;108096;1253;24684;-83
2023/06/25 13:49:17;;;;;;;5.90;4.80;;;;;;;;;;108133;1251;22667;-84
2023/06/25 13:51:43;;;;;;;7.60;5.00;;;;;;;;;;108225;1251;22517;-84
2023/06/25 13:54:10;;;;;;;7.50;5.20;;;;;;;;;;108233;1253;22540;-83
2023/06/25 13:56:37;;;;;;;5.30;4.60;;;;;;;;;;108180;1252;24105;-83
2023/06/25 13:59:03;;;;;;;7.10;5.00;;;;;;;;;;108145;1253;24256;-83
2023/06/25 14:01:29;;;;;;;6.00;4.30;;;;;;;;;;108187;1254;22540;-84
2023/06/25 14:03:56;;;;;;;6.80;4.40;;;;;;;;;;108183;1252;22658;-83
2023/06/25 14:06:22;;;;;;;5.80;4.80;;;;;;;;;;108164;1251;23030;-83
2023/06/25 14:08:49;;;;;;;6.10;4.80;;;;;;;;;;108232;1251;22561;-84
2023/06/25 14:11:15;;;;;;;5.10;4.50;;;;;;;;;;108130;1253;24270;-83
2023/06/25 14:13:42;;;;;;;5.90;4.50;;;;;;;;;;107157;1251;61199;-83
2023/06/25 14:16:08;;;;;;;7.40;4.00;;;;;;;;;;107098;1254;61779;-83
2023/06/25 14:18:35;;;;;;;6.80;4.50;;;;;;;;;;107129;1251;59430;-84
2023/06/25 14:21:01;;;;;;;6.10;4.70;;;;;;;;;;107093;1253;61268;-84